Sunday, July 22, 2018, 7:57 PM EDT
Back to Local

KEZF, Fredericksburg, Shannon Airport

Location: Fredericksburg, VA, United States Lat: 38.267
Local Time: 7:57 PM EDT (23:57 GMT) Lon: -77.45
Time Zone: US/Eastern Elev: 85 ft

Show me the last for .
Show Decoded

2018-07-22 19:35 METAR KEZF 222335Z AUTO 00000KT 10SM SCT065 SCT100 24/24 A2981 RMK AO2 T02380238
                 =
2018-07-22 19:15 METAR KEZF 222315Z AUTO 09003KT 10SM CLR 24/24 A2981 RMK AO2 T02420242 =
2018-07-22 18:55 METAR KEZF 222255Z AUTO 00000KT 10SM SCT021 SCT038 SCT110 24/24 A2980 RMK AO2
                 T02370237 =
2018-07-22 18:35 METAR KEZF 222235Z AUTO 11003KT 7SM -RA SCT010 BKN029 OVC110 24/24 A2981 RMK AO2
                 T02350235 =
2018-07-22 18:15 METAR KEZF 222215Z AUTO 10012G21KT 1/4SM RA BKN010 OVC017 24/24 A2982 RMK AO2
                 T02390237 =
2018-07-22 17:55 METAR KEZF 222155Z AUTO 11006KT 10SM SCT035 BKN046 28/22 A2981 RMK AO2 T02790222
                 =
2018-07-22 17:35 METAR KEZF 222135Z AUTO 11004KT 10SM SCT046 28/22 A2979 RMK AO2 T02820221 =
2018-07-22 17:15 METAR KEZF 222115Z AUTO 09003KT 10SM SCT027 SCT041 28/22 A2978 RMK AO2 T02830221
                 =
2018-07-22 16:55 METAR KEZF 222055Z AUTO 11004KT 10SM SCT035 SCT043 BKN050 28/22 A2978 RMK AO2
                 T02770219 =
2018-07-22 16:35 METAR KEZF 222035Z AUTO 00000KT 10SM SCT031 BKN040 BKN050 28/22 A2979 RMK AO2
                 T02760219 =
2018-07-22 16:15 METAR KEZF 222015Z AUTO 20003KT 10SM SCT025 SCT035 BKN041 29/23 A2979 RMK AO2
                 T02860225 =
2018-07-22 15:55 METAR KEZF 221955Z AUTO 15003KT 10SM BKN023 BKN029 BKN034 28/22 A2980 RMK AO2
                 T02780221 =
2018-07-22 15:35 METAR KEZF 221935Z AUTO 00000KT 10SM SCT023 BKN031 BKN065 27/22 A2980 RMK AO2
                 T02680219 =
2018-07-22 15:15 METAR KEZF 221915Z AUTO 00000KT 10SM BKN019 BKN031 BKN075 26/22 A2980 RMK AO2
                 T02640219 =
2018-07-22 14:55 METAR KEZF 221855Z AUTO 13003KT 10SM SCT022 SCT029 BKN033 26/22 A2980 RMK AO2
                 T02630219 =
2018-07-22 14:35 METAR KEZF 221835Z AUTO 18003KT 10SM SCT016 BKN024 OVC028 26/22 A2980 RMK AO2
                 T02550223 =
2018-07-22 14:15 METAR KEZF 221815Z AUTO 00000KT 10SM BKN016 OVC037 25/23 A2980 RMK AO2 T02500227
                 =
2018-07-22 13:55 METAR KEZF 221755Z AUTO 09003KT 10SM SCT012 OVC039 25/24 A2980 RMK AO2 T02460238
                 10246 20192 =
2018-07-22 13:35 METAR KEZF 221735Z AUTO 00000KT 10SM BKN007 BKN012 OVC060 24/24 A2981 RMK AO2
                 T02380237 =
2018-07-22 13:15 METAR KEZF 221715Z AUTO 00000KT 7SM -DZ BKN007 BKN025 OVC055 23/23 A2981 RMK AO2
                 T02280228 =
2018-07-22 12:55 METAR KEZF 221655Z AUTO 00000KT 3SM -RA SCT007 BKN011 OVC055 23/23 A2982 RMK AO2
                 T02260226 =
2018-07-22 12:35 METAR KEZF 221635Z AUTO 11004KT 7SM RA OVC011 23/23 A2983 RMK AO2 T02280228 =
2018-07-22 12:15 METAR KEZF 221615Z AUTO 11007KT 10SM OVC011 23/22 A2983 RMK AO2 T02300223 =
2018-07-22 11:55 METAR KEZF 221555Z AUTO 11004KT 10SM SCT011 BKN049 OVC055 23/22 A2983 RMK AO2
                 T02310223 =
2018-07-22 11:35 METAR KEZF 221535Z AUTO 12004KT 10SM SCT009 SCT049 BKN095 23/22 A2982 RMK AO2
                 T02270223 =
2018-07-22 11:15 METAR KEZF 221515Z AUTO 07003KT 10SM BKN011 BKN030 BKN045 23/22 A2981 RMK AO2
                 T02260221 =
2018-07-22 10:55 METAR KEZF 221455Z AUTO 09005KT 10SM -RA SCT013 BKN039 OVC110 22/22 A2982 RMK
                 AO2 T02220221 =
2018-07-22 10:35 METAR KEZF 221435Z AUTO 11004KT 10SM SCT013 OVC033 23/21 A2982 RMK AO2 T02250211
                 =
2018-07-22 10:15 METAR KEZF 221415Z AUTO 11005KT 10SM OVC033 22/22 A2983 RMK AO2 T02210217 =
2018-07-22 09:55 METAR KEZF 221355Z AUTO 13004KT 10SM OVC033 22/22 A2983 RMK AO2 T02170216 =
2018-07-22 09:35 METAR KEZF 221335Z AUTO 13004KT 10SM SCT012 OVC031 22/21 A2983 RMK AO2 T02150212
                 =
2018-07-22 09:10 METAR KEZF 221310Z AUTO 14006KT 10SM SCT010 OVC031 22/21 A2983 RMK AO2 T02160212
                 =
2018-07-22 08:55 METAR KEZF 221255Z AUTO 15005KT 10SM SCT008 BKN031 22/21 A2982 RMK AO2 T02160212
                 =
2018-07-22 08:35 METAR KEZF 221235Z AUTO 15004KT 10SM SCT006 SCT033 21/21 A2981 RMK AO2 T02060206
                 =
2018-07-22 08:15 METAR KEZF 221215Z AUTO 14004KT 10SM SCT006 SCT034 20/20 A2980 RMK AO2 T01980198
                 =
2018-07-22 07:55 METAR KEZF 221155Z AUTO 00000KT 10SM SCT034 19/19 A2979 RMK AO2 T01920192 10192
                 20172 =
2018-07-22 07:35 METAR KEZF 221135Z AUTO 00000KT 10SM SCT036 19/19 A2978 RMK AO2 T01860186 =
2018-07-22 07:15 METAR KEZF 221115Z AUTO 00000KT 10SM CLR 18/18 A2978 RMK AO2 T01810181 =
2018-07-22 06:55 METAR KEZF 221055Z AUTO 00000KT 10SM CLR 18/18 A2977 RMK AO2 T01790179 =
2018-07-22 06:35 METAR KEZF 221035Z AUTO 14004KT 10SM SCT002 18/18 A2977 RMK AO2 T01760176 =
2018-07-22 06:15 METAR KEZF 221015Z AUTO 00000KT 10SM SCT002 18/18 A2975 RMK AO2 T01750175 =
2018-07-22 05:55 METAR KEZF 220955Z AUTO 00000KT 10SM CLR 18/18 A2974 RMK AO2 T01760176 =
2018-07-22 05:35 METAR KEZF 220935Z AUTO 15003KT 10SM CLR 18/18 A2975 RMK AO2 T01760176 =
2018-07-22 05:15 METAR KEZF 220915Z AUTO 00000KT 10SM CLR 18/18 A2974 RMK AO2 T01760176 =
2018-07-22 04:55 METAR KEZF 220855Z AUTO 00000KT 10SM CLR 18/18 A2974 RMK AO2 T01780178 =
2018-07-22 04:35 METAR KEZF 220835Z AUTO 00000KT 10SM CLR 18/18 A2974 RMK AO2 T01770177 =
2018-07-22 04:15 METAR KEZF 220815Z AUTO 16003KT 10SM CLR 17/17 A2974 RMK AO2 T01730173 =
2018-07-22 03:55 METAR KEZF 220755Z AUTO 16003KT 7SM CLR 18/18 A2973 RMK AO2 T01750175 =
2018-07-22 03:35 METAR KEZF 220735Z AUTO 00000KT 10SM CLR 18/18 A2972 RMK AO2 T01800180 =
2018-07-22 03:15 METAR KEZF 220715Z AUTO 00000KT 10SM CLR 18/18 A2972 RMK AO2 T01830183 =
2018-07-22 02:55 METAR KEZF 220655Z AUTO 00000KT 10SM SCT025 BKN030 19/19 A2972 RMK AO2 T01850185
                 =
2018-07-22 02:35 METAR KEZF 220635Z AUTO 27003KT 10SM SCT009 OVC023 19/19 A2973 RMK AO2 T01880188
                 =
2018-07-22 02:15 METAR KEZF 220615Z AUTO 30004KT 10SM OVC023 19/19 A2973 RMK AO2 T01870187 =
2018-07-22 01:55 METAR KEZF 220555Z AUTO 27004KT 10SM SCT012 OVC021 19/19 A2972 RMK AO2 T01870187
                 10193 20186 402280186 =
2018-07-22 01:35 METAR KEZF 220535Z AUTO 27007KT 10SM BKN010 OVC019 19/19 A2972 RMK AO2 T01860186
                 =
2018-07-22 01:15 METAR KEZF 220515Z AUTO 29009G14KT 10SM OVC010 19/19 A2971 RMK AO2 T01870187 =
2018-07-22 00:55 METAR KEZF 220455Z AUTO 29007KT 10SM OVC010 19/19 A2970 RMK AO2 T01880188 =
2018-07-22 00:35 METAR KEZF 220435Z AUTO 29009KT 10SM -RA OVC010 19/19 A2969 RMK AO2 T01870187 =
2018-07-22 00:15 METAR KEZF 220415Z AUTO 29006G15KT 10SM -DZ BKN010 OVC014 19/19 A2969 RMK AO2
                 T01880188 =
2018-07-21 23:55 METAR KEZF 220355Z AUTO 30010KT 10SM -DZ SCT010 OVC014 19/19 A2969 RMK AO2
                 T01900190 =
2018-07-21 23:35 METAR KEZF 220335Z AUTO 30011G16KT 10SM -RA SCT008 OVC020 19/19 A2969 RMK AO2
                 T01900190 =
2018-07-21 23:15 METAR KEZF 220315Z AUTO 31009KT 10SM -DZ SCT008 OVC018 19/19 A2968 RMK AO2
                 T01900190 =
2018-07-21 22:55 METAR KEZF 220255Z AUTO 31009G15KT 10SM DZ BKN008 OVC017 19/19 A2969 RMK AO2
                 T01900190 =
2018-07-21 22:35 METAR KEZF 220235Z AUTO 31008G16KT 10SM +RA BKN008 OVC014 19/19 A2970 RMK AO2
                 T01910191 =
2018-07-21 22:15 METAR KEZF 220215Z AUTO 30008G15KT 10SM RA BKN010 OVC014 19/19 A2970 RMK AO2
                 T01910191 =
2018-07-21 21:55 METAR KEZF 220155Z AUTO 30011G19KT 10SM RA OVC010 19/19 A2969 RMK AO2 T01930193
                 =
2018-07-21 21:35 METAR KEZF 220135Z AUTO 32008G14KT 10SM RA BKN006 BKN014 OVC018 19/19 A2969 RMK
                 AO2 T01920192 =
2018-07-21 21:15 METAR KEZF 220115Z AUTO 32008KT 10SM RA BKN006 OVC012 19/19 A2969 RMK AO2
                 T01920192 =
2018-07-21 20:55 METAR KEZF 220055Z AUTO 32008G15KT 300V360 10SM +RA OVC006 19/19 A2969 RMK AO2
                 T01910191 =
2018-07-21 20:35 METAR KEZF 220035Z AUTO 33008G15KT 10SM RA OVC008 19/19 A2969 RMK AO2 T01920192
                 =
2018-07-21 20:15 METAR KEZF 220015Z AUTO 31009G14KT 10SM DZ OVC008 19/19 A2969 RMK AO2 T01910191
                 =

Support USWX by starting your Amazon purchase here.